sensor_id;sensor_type;location;lat;lon;timestamp;temperature;humidity
6335;DHT22;3200;48.204;11.576;2024-03-22T00:02:07;6.80;99.90
6335;DHT22;3200;48.204;11.576;2024-03-22T00:04:35;6.80;99.90
6335;DHT22;3200;48.204;11.576;2024-03-22T00:07:03;6.70;99.90
6335;DHT22;3200;48.204;11.576;2024-03-22T00:09:30;6.70;99.90
6335;DHT22;3200;48.204;11.576;2024-03-22T00:11:56;6.70;99.90
6335;DHT22;3200;48.204;11.576;2024-03-22T00:14:21;6.70;99.90
6335;DHT22;3200;48.204;11.576;2024-03-22T00:16:47;6.70;99.90
6335;DHT22;3200;48.204;11.576;2024-03-22T00:19:13;6.70;99.90
6335;DHT22;3200;48.204;11.576;2024-03-22T00:21:39;6.70;99.90
6335;DHT22;3200;48.204;11.576;2024-03-22T00:24:05;6.70;99.90
6335;DHT22;3200;48.204;11.576;2024-03-22T00:26:31;6.60;99.90
6335;DHT22;3200;48.204;11.576;2024-03-22T00:28:57;6.70;99.90
6335;DHT22;3200;48.204;11.576;2024-03-22T00:31:26;6.60;99.90
6335;DHT22;3200;48.204;11.576;2024-03-22T00:33:52;6.70;99.90
6335;DHT22;3200;48.204;11.576;2024-03-22T00:36:18;6.70;99.90
6335;DHT22;3200;48.204;11.576;2024-03-22T00:38:44;6.60;99.90
6335;DHT22;3200;48.204;11.576;2024-03-22T00:41:10;6.60;99.90
6335;DHT22;3200;48.204;11.576;2024-03-22T00:43:36;6.60;99.90
6335;DHT22;3200;48.204;11.576;2024-03-22T00:46:02;6.50;99.90
6335;DHT22;3200;48.204;11.576;2024-03-22T00:48:28;6.40;99.90
6335;DHT22;3200;48.204;11.576;2024-03-22T00:50:54;6.40;99.90
6335;DHT22;3200;48.204;11.576;2024-03-22T00:53:20;6.40;99.90
6335;DHT22;3200;48.204;11.576;2024-03-22T00:55:46;6.40;99.90
6335;DHT22;3200;48.204;11.576;2024-03-22T00:58:19;6.40;99.90
6335;DHT22;3200;48.204;11.576;2024-03-22T01:00:46;6.30;99.90
6335;DHT22;3200;48.204;11.576;2024-03-22T01:03:12;6.40;99.90
6335;DHT22;3200;48.204;11.576;2024-03-22T01:05:38;6.40;99.90
6335;DHT22;3200;48.204;11.576;2024-03-22T01:08:05;6.30;99.90
6335;DHT22;3200;48.204;11.576;2024-03-22T01:10:33;6.30;99.90
6335;DHT22;3200;48.204;11.576;2024-03-22T01:12:59;6.20;99.90
6335;DHT22;3200;48.204;11.576;2024-03-22T01:15:26;6.20;99.90
6335;DHT22;3200;48.204;11.576;2024-03-22T01:17:53;6.30;99.90
6335;DHT22;3200;48.204;11.576;2024-03-22T01:20:18;6.20;99.90
6335;DHT22;3200;48.204;11.576;2024-03-22T01:22:44;6.20;99.90
6335;DHT22;3200;48.204;11.576;2024-03-22T01:25:10;6.20;99.90
6335;DHT22;3200;48.204;11.576;2024-03-22T01:27:36;6.10;99.90
6335;DHT22;3200;48.204;11.576;2024-03-22T01:30:03;6.20;99.90
6335;DHT22;3200;48.204;11.576;2024-03-22T01:32:29;6.10;99.90
6335;DHT22;3200;48.204;11.576;2024-03-22T01:34:55;6.10;99.90
6335;DHT22;3200;48.204;11.576;2024-03-22T01:37:20;6.10;99.90
6335;DHT22;3200;48.204;11.576;2024-03-22T01:39:46;6.10;99.90
6335;DHT22;3200;48.204;11.576;2024-03-22T01:42:12;6.10;99.90
6335;DHT22;3200;48.204;11.576;2024-03-22T01:44:38;6.00;99.90
6335;DHT22;3200;48.204;11.576;2024-03-22T01:47:07;6.10;99.90
6335;DHT22;3200;48.204;11.576;2024-03-22T01:49:33;6.20;99.90
6335;DHT22;3200;48.204;11.576;2024-03-22T01:51:59;6.20;99.90
6335;DHT22;3200;48.204;11.576;2024-03-22T01:54:25;6.20;99.90
6335;DHT22;3200;48.204;11.576;2024-03-22T01:56:52;6.10;99.90
6335;DHT22;3200;48.204;11.576;2024-03-22T01:59:18;6.10;99.90
6335;DHT22;3200;48.204;11.576;2024-03-22T02:01:44;6.00;99.90
6335;DHT22;3200;48.204;11.576;2024-03-22T02:04:10;6.00;99.90
6335;DHT22;3200;48.204;11.576;2024-03-22T02:06:36;6.00;99.90
6335;DHT22;3200;48.204;11.576;2024-03-22T02:09:02;5.90;99.90
6335;DHT22;3200;48.204;11.576;2024-03-22T02:11:30;6.00;99.90
6335;DHT22;3200;48.204;11.576;2024-03-22T02:13:57;6.00;99.90
6335;DHT22;3200;48.204;11.576;2024-03-22T02:16:23;6.00;99.90
6335;DHT22;3200;48.204;11.576;2024-03-22T02:18:49;6.00;99.90
6335;DHT22;3200;48.204;11.576;2024-03-22T02:21:16;6.00;99.90
6335;DHT22;3200;48.204;11.576;2024-03-22T02:23:41;6.10;99.90
6335;DHT22;3200;48.204;11.576;2024-03-22T02:26:07;6.00;99.90
6335;DHT22;3200;48.204;11.576;2024-03-22T02:28:35;5.90;99.90
6335;DHT22;3200;48.204;11.576;2024-03-22T02:31:02;5.80;99.90
6335;DHT22;3200;48.204;11.576;2024-03-22T02:33:28;5.80;99.90
6335;DHT22;3200;48.204;11.576;2024-03-22T02:35:54;5.80;99.90
6335;DHT22;3200;48.204;11.576;2024-03-22T02:38:20;5.70;99.90
6335;DHT22;3200;48.204;11.576;2024-03-22T02:40:48;5.70;99.90
6335;DHT22;3200;48.204;11.576;2024-03-22T02:43:14;5.60;99.90
6335;DHT22;3200;48.204;11.576;2024-03-22T02:45:40;5.60;99.90
6335;DHT22;3200;48.204;11.576;2024-03-22T02:48:07;5.70;99.90
6335;DHT22;3200;48.204;11.576;2024-03-22T02:50:37;5.70;99.90
6335;DHT22;3200;48.204;11.576;2024-03-22T02:53:04;5.60;99.90
6335;DHT22;3200;48.204;11.576;2024-03-22T02:55:35;5.60;99.90
6335;DHT22;3200;48.204;11.576;2024-03-22T02:58:02;5.60;99.90
6335;DHT22;3200;48.204;11.576;2024-03-22T03:00:28;5.50;99.90
6335;DHT22;3200;48.204;11.576;2024-03-22T03:02:54;5.50;99.90
6335;DHT22;3200;48.204;11.576;2024-03-22T03:05:19;5.50;99.90
6335;DHT22;3200;48.204;11.576;2024-03-22T03:07:45;5.50;99.90
6335;DHT22;3200;48.204;11.576;2024-03-22T03:10:12;5.40;99.90
6335;DHT22;3200;48.204;11.576;2024-03-22T03:12:38;5.50;99.90
6335;DHT22;3200;48.204;11.576;2024-03-22T03:15:04;5.50;99.90
6335;DHT22;3200;48.204;11.576;2024-03-22T03:17:30;5.50;99.90
6335;DHT22;3200;48.204;11.576;2024-03-22T03:19:56;5.50;99.90
6335;DHT22;3200;48.204;11.576;2024-03-22T03:22:22;5.50;99.90
6335;DHT22;3200;48.204;11.576;2024-03-22T03:24:47;5.50;99.90
6335;DHT22;3200;48.204;11.576;2024-03-22T03:27:13;5.50;99.90
6335;DHT22;3200;48.204;11.576;2024-03-22T03:29:39;5.40;99.90
6335;DHT22;3200;48.204;11.576;2024-03-22T03:32:05;5.40;99.90
6335;DHT22;3200;48.204;11.576;2024-03-22T03:34:31;5.40;99.90
6335;DHT22;3200;48.204;11.576;2024-03-22T03:36:56;5.50;99.90
6335;DHT22;3200;48.204;11.576;2024-03-22T03:39:26;5.50;99.90
6335;DHT22;3200;48.204;11.576;2024-03-22T03:41:52;5.50;99.90
6335;DHT22;3200;48.204;11.576;2024-03-22T03:44:18;5.40;99.90
6335;DHT22;3200;48.204;11.576;2024-03-22T03:46:43;5.50;99.90
6335;DHT22;3200;48.204;11.576;2024-03-22T03:49:09;5.50;99.90
6335;DHT22;3200;48.204;11.576;2024-03-22T03:51:35;5.40;99.90
6335;DHT22;3200;48.204;11.576;2024-03-22T03:54:01;5.40;99.90
6335;DHT22;3200;48.204;11.576;2024-03-22T03:56:27;5.40;99.90
6335;DHT22;3200;48.204;11.576;2024-03-22T03:58:53;5.40;99.90
6335;DHT22;3200;48.204;11.576;2024-03-22T04:01:19;5.40;99.90
6335;DHT22;3200;48.204;11.576;2024-03-22T04:03:45;5.40;99.90
6335;DHT22;3200;48.204;11.576;2024-03-22T04:06:11;5.40;99.90
6335;DHT22;3200;48.204;11.576;2024-03-22T04:08:37;5.40;99.90
6335;DHT22;3200;48.204;11.576;2024-03-22T04:11:02;5.40;99.90
6335;DHT22;3200;48.204;11.576;2024-03-22T04:13:28;5.50;99.90
6335;DHT22;3200;48.204;11.576;2024-03-22T04:15:58;5.40;99.90
6335;DHT22;3200;48.204;11.576;2024-03-22T04:18:24;5.50;99.90
6335;DHT22;3200;48.204;11.576;2024-03-22T04:20:58;5.40;99.90
6335;DHT22;3200;48.204;11.576;2024-03-22T04:23:25;5.50;99.90
6335;DHT22;3200;48.204;11.576;2024-03-22T04:25:59;5.40;99.90
6335;DHT22;3200;48.204;11.576;2024-03-22T04:28:26;5.50;99.90
6335;DHT22;3200;48.204;11.576;2024-03-22T04:31:00;5.50;99.90
6335;DHT22;3200;48.204;11.576;2024-03-22T04:33:29;5.60;99.90
6335;DHT22;3200;48.204;11.576;2024-03-22T04:35:55;5.50;99.90
6335;DHT22;3200;48.204;11.576;2024-03-22T04:38:22;5.50;99.90
6335;DHT22;3200;48.204;11.576;2024-03-22T04:40:49;5.50;99.90
6335;DHT22;3200;48.204;11.576;2024-03-22T04:43:15;5.50;99.90
6335;DHT22;3200;48.204;11.576;2024-03-22T04:45:45;5.50;99.90
6335;DHT22;3200;48.204;11.576;2024-03-22T04:48:14;5.50;99.90
6335;DHT22;3200;48.204;11.576;2024-03-22T04:50:41;5.50;99.90
6335;DHT22;3200;48.204;11.576;2024-03-22T04:53:07;5.60;99.90
6335;DHT22;3200;48.204;11.576;2024-03-22T04:55:33;5.60;99.90
6335;DHT22;3200;48.204;11.576;2024-03-22T04:57:59;5.60;99.90
6335;DHT22;3200;48.204;11.576;2024-03-22T05:00:26;5.60;99.90
6335;DHT22;3200;48.204;11.576;2024-03-22T05:02:52;5.60;99.90
6335;DHT22;3200;48.204;11.576;2024-03-22T05:05:18;5.60;99.90
6335;DHT22;3200;48.204;11.576;2024-03-22T05:07:44;5.70;99.90
6335;DHT22;3200;48.204;11.576;2024-03-22T05:10:11;5.70;99.90
6335;DHT22;3200;48.204;11.576;2024-03-22T05:12:37;5.80;99.90
6335;DHT22;3200;48.204;11.576;2024-03-22T05:15:04;5.90;99.90
6335;DHT22;3200;48.204;11.576;2024-03-22T05:17:31;6.00;99.90
6335;DHT22;3200;48.204;11.576;2024-03-22T05:20:00;6.00;99.90
6335;DHT22;3200;48.204;11.576;2024-03-22T05:22:31;6.10;99.90
6335;DHT22;3200;48.204;11.576;2024-03-22T05:24:56;6.10;99.90
6335;DHT22;3200;48.204;11.576;2024-03-22T05:27:22;6.10;99.90
6335;DHT22;3200;48.204;11.576;2024-03-22T05:29:48;6.30;99.90
6335;DHT22;3200;48.204;11.576;2024-03-22T05:32:14;6.20;99.90
6335;DHT22;3200;48.204;11.576;2024-03-22T05:34:40;6.30;99.90
6335;DHT22;3200;48.204;11.576;2024-03-22T05:37:06;6.40;99.90
6335;DHT22;3200;48.204;11.576;2024-03-22T05:39:31;6.50;99.90
6335;DHT22;3200;48.204;11.576;2024-03-22T05:41:57;6.70;99.90
6335;DHT22;3200;48.204;11.576;2024-03-22T05:44:23;6.70;99.90
6335;DHT22;3200;48.204;11.576;2024-03-22T05:46:49;6.80;99.90
6335;DHT22;3200;48.204;11.576;2024-03-22T05:49:15;6.80;99.90
6335;DHT22;3200;48.204;11.576;2024-03-22T05:51:42;6.80;99.90
6335;DHT22;3200;48.204;11.576;2024-03-22T05:54:08;6.80;99.90
6335;DHT22;3200;48.204;11.576;2024-03-22T05:56:34;6.90;99.90
6335;DHT22;3200;48.204;11.576;2024-03-22T05:58:59;6.90;99.90
6335;DHT22;3200;48.204;11.576;2024-03-22T06:01:25;7.00;99.90
6335;DHT22;3200;48.204;11.576;2024-03-22T06:03:51;6.90;99.90
6335;DHT22;3200;48.204;11.576;2024-03-22T06:06:17;6.90;99.90
6335;DHT22;3200;48.204;11.576;2024-03-22T06:08:44;6.90;99.90
6335;DHT22;3200;48.204;11.576;2024-03-22T06:11:10;6.90;99.90
6335;DHT22;3200;48.204;11.576;2024-03-22T06:13:37;7.00;99.90
6335;DHT22;3200;48.204;11.576;2024-03-22T06:16:03;7.10;99.90
6335;DHT22;3200;48.204;11.576;2024-03-22T06:18:29;7.10;99.90
6335;DHT22;3200;48.204;11.576;2024-03-22T06:20:55;7.00;99.90
6335;DHT22;3200;48.204;11.576;2024-03-22T06:23:22;7.00;99.90
6335;DHT22;3200;48.204;11.576;2024-03-22T06:25:54;7.10;99.90
6335;DHT22;3200;48.204;11.576;2024-03-22T06:28:22;7.10;99.90
6335;DHT22;3200;48.204;11.576;2024-03-22T06:30:49;7.10;99.90
6335;DHT22;3200;48.204;11.576;2024-03-22T06:33:14;7.10;99.90
6335;DHT22;3200;48.204;11.576;2024-03-22T06:35:43;7.20;99.90
6335;DHT22;3200;48.204;11.576;2024-03-22T06:38:09;7.40;99.90
6335;DHT22;3200;48.204;11.576;2024-03-22T06:40:35;9.10;99.90
6335;DHT22;3200;48.204;11.576;2024-03-22T06:43:01;12.10;99.90
6335;DHT22;3200;48.204;11.576;2024-03-22T06:45:27;13.40;99.90
6335;DHT22;3200;48.204;11.576;2024-03-22T06:47:53;14.40;99.90
6335;DHT22;3200;48.204;11.576;2024-03-22T06:50:19;14.60;99.90
6335;DHT22;3200;48.204;11.576;2024-03-22T06:52:53;15.10;99.90
6335;DHT22;3200;48.204;11.576;2024-03-22T06:55:20;15.30;99.90
6335;DHT22;3200;48.204;11.576;2024-03-22T06:57:47;15.70;99.90
6335;DHT22;3200;48.204;11.576;2024-03-22T07:00:15;15.10;99.90
6335;DHT22;3200;48.204;11.576;2024-03-22T07:02:42;13.40;99.90
6335;DHT22;3200;48.204;11.576;2024-03-22T07:05:08;12.80;99.90
6335;DHT22;3200;48.204;11.576;2024-03-22T07:07:35;13.40;99.90
6335;DHT22;3200;48.204;11.576;2024-03-22T07:10:05;13.60;99.90
6335;DHT22;3200;48.204;11.576;2024-03-22T07:12:32;14.60;99.90
6335;DHT22;3200;48.204;11.576;2024-03-22T07:15:00;17.20;99.90
6335;DHT22;3200;48.204;11.576;2024-03-22T07:17:26;18.80;99.90
6335;DHT22;3200;48.204;11.576;2024-03-22T07:19:53;19.40;99.90
6335;DHT22;3200;48.204;11.576;2024-03-22T07:22:20;19.50;99.90
6335;DHT22;3200;48.204;11.576;2024-03-22T07:24:47;19.90;99.80
6335;DHT22;3200;48.204;11.576;2024-03-22T07:27:13;20.50;98.40
6335;DHT22;3200;48.204;11.576;2024-03-22T07:29:41;21.00;97.10
6335;DHT22;3200;48.204;11.576;2024-03-22T07:32:07;21.20;96.00
6335;DHT22;3200;48.204;11.576;2024-03-22T07:34:33;21.20;95.50
6335;DHT22;3200;48.204;11.576;2024-03-22T07:36:59;20.90;95.70
6335;DHT22;3200;48.204;11.576;2024-03-22T07:39:25;19.70;96.60
6335;DHT22;3200;48.204;11.576;2024-03-22T07:41:51;18.80;97.90
6335;DHT22;3200;48.204;11.576;2024-03-22T07:44:17;17.50;99.70
6335;DHT22;3200;48.204;11.576;2024-03-22T07:46:46;16.50;99.90
6335;DHT22;3200;48.204;11.576;2024-03-22T07:49:13;16.40;99.90
6335;DHT22;3200;48.204;11.576;2024-03-22T07:51:38;16.70;99.90
6335;DHT22;3200;48.204;11.576;2024-03-22T07:54:04;17.80;99.90
6335;DHT22;3200;48.204;11.576;2024-03-22T07:56:30;18.60;99.30
6335;DHT22;3200;48.204;11.576;2024-03-22T07:58:56;20.20;96.90
6335;DHT22;3200;48.204;11.576;2024-03-22T08:01:22;18.90;97.70
6335;DHT22;3200;48.204;11.576;2024-03-22T08:03:49;17.00;99.90
6335;DHT22;3200;48.204;11.576;2024-03-22T08:06:15;15.90;99.90
6335;DHT22;3200;48.204;11.576;2024-03-22T08:08:41;15.40;99.90
6335;DHT22;3200;48.204;11.576;2024-03-22T08:11:07;15.50;99.90
6335;DHT22;3200;48.204;11.576;2024-03-22T08:13:32;15.40;99.90
6335;DHT22;3200;48.204;11.576;2024-03-22T08:15:58;15.10;99.90
6335;DHT22;3200;48.204;11.576;2024-03-22T08:18:24;15.00;99.90
6335;DHT22;3200;48.204;11.576;2024-03-22T08:20:50;14.70;99.90
6335;DHT22;3200;48.204;11.576;2024-03-22T08:23:15;14.70;99.90
6335;DHT22;3200;48.204;11.576;2024-03-22T08:25:43;14.60;99.90
6335;DHT22;3200;48.204;11.576;2024-03-22T08:28:09;14.70;99.90
6335;DHT22;3200;48.204;11.576;2024-03-22T08:30:37;14.70;99.90
6335;DHT22;3200;48.204;11.576;2024-03-22T08:33:03;14.70;99.90
6335;DHT22;3200;48.204;11.576;2024-03-22T08:35:29;14.80;99.90
6335;DHT22;3200;48.204;11.576;2024-03-22T08:37:56;15.00;99.90
6335;DHT22;3200;48.204;11.576;2024-03-22T08:40:22;15.10;99.90
6335;DHT22;3200;48.204;11.576;2024-03-22T08:42:48;15.20;99.90
6335;DHT22;3200;48.204;11.576;2024-03-22T08:45:14;15.20;99.90
6335;DHT22;3200;48.204;11.576;2024-03-22T08:47:42;15.10;99.90
6335;DHT22;3200;48.204;11.576;2024-03-22T08:50:11;15.00;99.90
6335;DHT22;3200;48.204;11.576;2024-03-22T08:52:37;14.80;99.90
6335;DHT22;3200;48.204;11.576;2024-03-22T08:55:04;14.60;99.90
6335;DHT22;3200;48.204;11.576;2024-03-22T08:57:32;14.60;99.90
6335;DHT22;3200;48.204;11.576;2024-03-22T08:59:58;14.60;99.90
6335;DHT22;3200;48.204;11.576;2024-03-22T09:02:24;14.50;99.90
6335;DHT22;3200;48.204;11.576;2024-03-22T09:04:50;14.20;99.90
6335;DHT22;3200;48.204;11.576;2024-03-22T09:07:17;14.30;99.90
6335;DHT22;3200;48.204;11.576;2024-03-22T09:09:43;14.30;99.90
6335;DHT22;3200;48.204;11.576;2024-03-22T09:12:09;14.30;99.90
6335;DHT22;3200;48.204;11.576;2024-03-22T09:14:35;14.50;99.90
6335;DHT22;3200;48.204;11.576;2024-03-22T09:17:00;14.30;99.90
6335;DHT22;3200;48.204;11.576;2024-03-22T09:19:26;14.40;99.90
6335;DHT22;3200;48.204;11.576;2024-03-22T09:21:52;14.40;99.90
6335;DHT22;3200;48.204;11.576;2024-03-22T09:24:18;14.20;99.90
6335;DHT22;3200;48.204;11.576;2024-03-22T09:26:44;14.40;99.90
6335;DHT22;3200;48.204;11.576;2024-03-22T09:29:10;14.50;99.90
6335;DHT22;3200;48.204;11.576;2024-03-22T09:31:35;14.60;99.90
6335;DHT22;3200;48.204;11.576;2024-03-22T09:34:01;14.70;99.90
6335;DHT22;3200;48.204;11.576;2024-03-22T09:36:27;14.70;99.90
6335;DHT22;3200;48.204;11.576;2024-03-22T09:38:53;14.90;99.90
6335;DHT22;3200;48.204;11.576;2024-03-22T09:41:24;14.90;99.90
6335;DHT22;3200;48.204;11.576;2024-03-22T09:43:55;14.80;99.90
6335;DHT22;3200;48.204;11.576;2024-03-22T09:46:24;14.90;99.90
6335;DHT22;3200;48.204;11.576;2024-03-22T09:48:52;14.90;99.90
6335;DHT22;3200;48.204;11.576;2024-03-22T09:51:19;14.60;99.90
6335;DHT22;3200;48.204;11.576;2024-03-22T09:53:48;14.80;99.90
6335;DHT22;3200;48.204;11.576;2024-03-22T09:56:15;14.70;99.90
6335;DHT22;3200;48.204;11.576;2024-03-22T09:58:46;14.50;99.90
6335;DHT22;3200;48.204;11.576;2024-03-22T10:01:12;14.60;99.90
6335;DHT22;3200;48.204;11.576;2024-03-22T10:03:38;14.60;99.90
6335;DHT22;3200;48.204;11.576;2024-03-22T10:06:04;14.60;99.90
6335;DHT22;3200;48.204;11.576;2024-03-22T10:08:30;14.40;99.90
6335;DHT22;3200;48.204;11.576;2024-03-22T10:10:56;14.30;99.90
6335;DHT22;3200;48.204;11.576;2024-03-22T10:13:22;14.50;99.90
6335;DHT22;3200;48.204;11.576;2024-03-22T10:15:48;14.60;99.90
6335;DHT22;3200;48.204;11.576;2024-03-22T10:18:14;14.80;99.90
6335;DHT22;3200;48.204;11.576;2024-03-22T10:20:41;14.80;99.90
6335;DHT22;3200;48.204;11.576;2024-03-22T10:23:08;14.70;99.90
6335;DHT22;3200;48.204;11.576;2024-03-22T10:25:34;14.80;99.90
6335;DHT22;3200;48.204;11.576;2024-03-22T10:28:01;14.90;99.90
6335;DHT22;3200;48.204;11.576;2024-03-22T10:30:27;14.90;99.90
6335;DHT22;3200;48.204;11.576;2024-03-22T10:32:54;15.10;99.90
6335;DHT22;3200;48.204;11.576;2024-03-22T10:35:20;15.20;99.90
6335;DHT22;3200;48.204;11.576;2024-03-22T10:37:47;15.10;99.90
6335;DHT22;3200;48.204;11.576;2024-03-22T10:40:14;14.90;99.90
6335;DHT22;3200;48.204;11.576;2024-03-22T10:42:41;14.90;99.90
6335;DHT22;3200;48.204;11.576;2024-03-22T10:45:09;15.10;99.90
6335;DHT22;3200;48.204;11.576;2024-03-22T10:47:37;14.90;99.90
6335;DHT22;3200;48.204;11.576;2024-03-22T10:50:10;14.90;99.90
6335;DHT22;3200;48.204;11.576;2024-03-22T10:52:58;14.80;99.90
6335;DHT22;3200;48.204;11.576;2024-03-22T10:55:35;14.60;99.90
6335;DHT22;3200;48.204;11.576;2024-03-22T10:58:03;14.60;99.90
6335;DHT22;3200;48.204;11.576;2024-03-22T11:00:36;14.70;99.90
6335;DHT22;3200;48.204;11.576;2024-03-22T11:03:03;14.50;99.90
6335;DHT22;3200;48.204;11.576;2024-03-22T11:05:29;14.40;99.90
6335;DHT22;3200;48.204;11.576;2024-03-22T11:08:03;14.40;99.90
6335;DHT22;3200;48.204;11.576;2024-03-22T11:10:31;14.50;99.90
6335;DHT22;3200;48.204;11.576;2024-03-22T11:13:03;14.60;99.90
6335;DHT22;3200;48.204;11.576;2024-03-22T11:15:30;14.50;99.90
6335;DHT22;3200;48.204;11.576;2024-03-22T11:17:57;14.60;99.90
6335;DHT22;3200;48.204;11.576;2024-03-22T11:20:25;14.80;99.90
6335;DHT22;3200;48.204;11.576;2024-03-22T11:22:52;14.80;99.90
6335;DHT22;3200;48.204;11.576;2024-03-22T11:25:18;14.90;99.90
6335;DHT22;3200;48.204;11.576;2024-03-22T11:27:46;15.20;99.90
6335;DHT22;3200;48.204;11.576;2024-03-22T11:30:12;15.20;99.90
6335;DHT22;3200;48.204;11.576;2024-03-22T11:32:39;15.10;99.90
6335;DHT22;3200;48.204;11.576;2024-03-22T11:35:13;15.10;99.90
6335;DHT22;3200;48.204;11.576;2024-03-22T11:37:40;14.70;99.90
6335;DHT22;3200;48.204;11.576;2024-03-22T11:40:09;14.70;99.90
6335;DHT22;3200;48.204;11.576;2024-03-22T11:42:40;14.70;99.90
6335;DHT22;3200;48.204;11.576;2024-03-22T11:45:10;14.50;99.90
6335;DHT22;3200;48.204;11.576;2024-03-22T11:47:37;14.70;99.90
6335;DHT22;3200;48.204;11.576;2024-03-22T11:50:03;14.70;99.90
6335;DHT22;3200;48.204;11.576;2024-03-22T11:52:29;14.60;99.90
6335;DHT22;3200;48.204;11.576;2024-03-22T11:54:55;14.50;99.90
6335;DHT22;3200;48.204;11.576;2024-03-22T11:57:23;14.50;99.90
6335;DHT22;3200;48.204;11.576;2024-03-22T11:59:50;14.50;99.90
6335;DHT22;3200;48.204;11.576;2024-03-22T12:02:17;14.80;99.90
6335;DHT22;3200;48.204;11.576;2024-03-22T12:04:45;14.80;99.90
6335;DHT22;3200;48.204;11.576;2024-03-22T12:07:16;14.70;99.90
6335;DHT22;3200;48.204;11.576;2024-03-22T12:09:46;14.90;99.90
6335;DHT22;3200;48.204;11.576;2024-03-22T12:12:13;14.80;99.90
6335;DHT22;3200;48.204;11.576;2024-03-22T12:14:39;14.80;99.90
6335;DHT22;3200;48.204;11.576;2024-03-22T12:17:06;14.90;99.90
6335;DHT22;3200;48.204;11.576;2024-03-22T12:19:33;15.00;99.90
6335;DHT22;3200;48.204;11.576;2024-03-22T12:21:59;15.00;99.90
6335;DHT22;3200;48.204;11.576;2024-03-22T12:24:26;14.90;99.90
6335;DHT22;3200;48.204;11.576;2024-03-22T12:26:55;15.00;99.90
6335;DHT22;3200;48.204;11.576;2024-03-22T12:29:21;15.00;99.90
6335;DHT22;3200;48.204;11.576;2024-03-22T12:31:47;15.10;99.90
6335;DHT22;3200;48.204;11.576;2024-03-22T12:34:13;15.20;99.90
6335;DHT22;3200;48.204;11.576;2024-03-22T12:36:39;15.50;99.90
6335;DHT22;3200;48.204;11.576;2024-03-22T12:39:05;15.40;99.90
6335;DHT22;3200;48.204;11.576;2024-03-22T12:41:32;15.70;99.90
6335;DHT22;3200;48.204;11.576;2024-03-22T12:43:58;15.80;99.90
6335;DHT22;3200;48.204;11.576;2024-03-22T12:46:25;15.60;99.90
6335;DHT22;3200;48.204;11.576;2024-03-22T12:48:51;15.60;99.90
6335;DHT22;3200;48.204;11.576;2024-03-22T12:51:17;15.60;99.90
6335;DHT22;3200;48.204;11.576;2024-03-22T12:53:43;15.50;99.90
6335;DHT22;3200;48.204;11.576;2024-03-22T12:56:09;15.40;99.90
6335;DHT22;3200;48.204;11.576;2024-03-22T12:58:36;15.60;99.90
6335;DHT22;3200;48.204;11.576;2024-03-22T13:01:02;16.00;99.90
6335;DHT22;3200;48.204;11.576;2024-03-22T13:07:00;16.00;99.90
6335;DHT22;3200;48.204;11.576;2024-03-22T13:09:26;15.90;99.90
6335;DHT22;3200;48.204;11.576;2024-03-22T13:11:55;15.80;99.90
6335;DHT22;3200;48.204;11.576;2024-03-22T13:14:30;15.80;99.90
6335;DHT22;3200;48.204;11.576;2024-03-22T13:16:58;15.80;99.90
6335;DHT22;3200;48.204;11.576;2024-03-22T13:19:37;16.00;99.90
6335;DHT22;3200;48.204;11.576;2024-03-22T13:22:44;15.90;99.90
6335;DHT22;3200;48.204;11.576;2024-03-22T13:26:18;16.10;99.90
6335;DHT22;3200;48.204;11.576;2024-03-22T13:28:54;16.10;99.90
6335;DHT22;3200;48.204;11.576;2024-03-22T13:31:20;16.10;99.90
6335;DHT22;3200;48.204;11.576;2024-03-22T13:33:46;16.00;99.90
6335;DHT22;3200;48.204;11.576;2024-03-22T13:36:13;16.00;99.90
6335;DHT22;3200;48.204;11.576;2024-03-22T13:38:39;15.90;99.90
6335;DHT22;3200;48.204;11.576;2024-03-22T13:41:05;16.10;99.90
6335;DHT22;3200;48.204;11.576;2024-03-22T13:43:45;16.00;99.90
6335;DHT22;3200;48.204;11.576;2024-03-22T13:46:11;16.00;99.90
6335;DHT22;3200;48.204;11.576;2024-03-22T13:48:40;16.10;99.90
6335;DHT22;3200;48.204;11.576;2024-03-22T13:51:09;16.10;99.90
6335;DHT22;3200;48.204;11.576;2024-03-22T13:53:47;16.10;99.90
6335;DHT22;3200;48.204;11.576;2024-03-22T13:56:13;15.90;99.90
6335;DHT22;3200;48.204;11.576;2024-03-22T13:58:41;16.00;99.90
6335;DHT22;3200;48.204;11.576;2024-03-22T14:01:07;16.00;99.90
6335;DHT22;3200;48.204;11.576;2024-03-22T14:03:33;15.90;99.90
6335;DHT22;3200;48.204;11.576;2024-03-22T14:09:46;15.90;99.90
6335;DHT22;3200;48.204;11.576;2024-03-22T14:12:23;16.10;99.90
6335;DHT22;3200;48.204;11.576;2024-03-22T14:15:07;15.90;99.90
6335;DHT22;3200;48.204;11.576;2024-03-22T14:17:33;15.90;99.90
6335;DHT22;3200;48.204;11.576;2024-03-22T14:20:02;15.90;99.90
6335;DHT22;3200;48.204;11.576;2024-03-22T14:23:00;16.00;99.90
6335;DHT22;3200;48.204;11.576;2024-03-22T14:25:28;15.80;99.90
6335;DHT22;3200;48.204;11.576;2024-03-22T14:31:32;16.10;99.90
6335;DHT22;3200;48.204;11.576;2024-03-22T14:33:57;16.20;99.70
6335;DHT22;3200;48.204;11.576;2024-03-22T14:36:23;16.20;99.60
6335;DHT22;3200;48.204;11.576;2024-03-22T14:38:49;16.30;97.30
6335;DHT22;3200;48.204;11.576;2024-03-22T14:41:15;16.40;96.50
6335;DHT22;3200;48.204;11.576;2024-03-22T14:43:41;16.30;96.10
6335;DHT22;3200;48.204;11.576;2024-03-22T14:46:06;16.30;96.20
6335;DHT22;3200;48.204;11.576;2024-03-22T14:48:32;16.30;93.70
6335;DHT22;3200;48.204;11.576;2024-03-22T14:50:58;16.20;94.20
6335;DHT22;3200;48.204;11.576;2024-03-22T14:53:24;16.10;94.40
6335;DHT22;3200;48.204;11.576;2024-03-22T14:55:56;16.30;93.80
6335;DHT22;3200;48.204;11.576;2024-03-22T14:58:27;16.50;93.10
6335;DHT22;3200;48.204;11.576;2024-03-22T15:01:00;16.30;93.10
6335;DHT22;3200;48.204;11.576;2024-03-22T15:03:27;16.30;92.40
6335;DHT22;3200;48.204;11.576;2024-03-22T15:05:54;16.20;92.30
6335;DHT22;3200;48.204;11.576;2024-03-22T15:08:22;16.30;91.10
6335;DHT22;3200;48.204;11.576;2024-03-22T15:10:49;16.20;91.20
6335;DHT22;3200;48.204;11.576;2024-03-22T15:13:16;16.10;91.40
6335;DHT22;3200;48.204;11.576;2024-03-22T15:15:43;16.10;91.50
6335;DHT22;3200;48.204;11.576;2024-03-22T15:18:17;16.10;91.90
6335;DHT22;3200;48.204;11.576;2024-03-22T15:20:43;16.10;92.00
6335;DHT22;3200;48.204;11.576;2024-03-22T15:23:09;16.10;92.20
6335;DHT22;3200;48.204;11.576;2024-03-22T15:25:34;16.10;92.20
6335;DHT22;3200;48.204;11.576;2024-03-22T15:28:00;16.20;92.20
6335;DHT22;3200;48.204;11.576;2024-03-22T15:30:26;16.20;91.70
6335;DHT22;3200;48.204;11.576;2024-03-22T15:32:52;16.30;91.10
6335;DHT22;3200;48.204;11.576;2024-03-22T15:35:21;16.40;90.30
6335;DHT22;3200;48.204;11.576;2024-03-22T15:37:46;16.40;88.90
6335;DHT22;3200;48.204;11.576;2024-03-22T15:40:13;16.50;89.20
6335;DHT22;3200;48.204;11.576;2024-03-22T15:42:39;16.40;89.00
6335;DHT22;3200;48.204;11.576;2024-03-22T15:45:06;16.30;88.50
6335;DHT22;3200;48.204;11.576;2024-03-22T15:47:32;16.40;86.00
6335;DHT22;3200;48.204;11.576;2024-03-22T15:49:58;16.50;84.10
6335;DHT22;3200;48.204;11.576;2024-03-22T15:52:25;16.50;83.80
6335;DHT22;3200;48.204;11.576;2024-03-22T15:54:51;16.30;83.90
6335;DHT22;3200;48.204;11.576;2024-03-22T15:57:19;16.20;85.80
6335;DHT22;3200;48.204;11.576;2024-03-22T15:59:45;16.20;84.90
6335;DHT22;3200;48.204;11.576;2024-03-22T16:02:11;16.10;84.80
6335;DHT22;3200;48.204;11.576;2024-03-22T16:04:36;16.10;85.40